Bellefountain, Indiana
Current Conditions -  °F | °C
As of 2:53 AM on Sunday 23 Nov 2014 (Local Time) from KMIE Reporting Station
Light Rain Light Rain  
Wind Chill: 44°   Ceiling: 4200
Heat Index: 47°   Visibility: 10mi
Dew Point: 41°   Wind: 7mph
Humidity: 80%   Direction: 170°S
Pressure: 29.97"   Gusts: NA
Location:  40.4312°N, 85.0058°W
Report Text: KMIE 230753Z AUTO 17006KT 10SM -RA OVC042 08/05 A2997 RMK AO2 SLP147 P0005 T00830050
Loading
Personal Weather Stations






























Interactive Weather Map New forecast layout! Learn more

10-Day Weather Forecast

Advertisements
Track Severe Weather on mobile